createdAt,value
2016-02-17T00:00:26.886Z,0
2016-02-17T00:01:26.889Z,0
2016-02-17T00:02:26.860Z,0
2016-02-17T00:03:26.863Z,0
2016-02-17T00:04:26.693Z,0
2016-02-17T00:05:26.853Z,0
2016-02-17T00:06:26.856Z,0
2016-02-17T00:07:26.858Z,0
2016-02-17T00:08:26.814Z,0
2016-02-17T00:09:26.832Z,0
2016-02-17T00:10:26.116Z,0
2016-02-17T00:11:26.821Z,0
2016-02-17T00:12:26.794Z,0
2016-02-17T00:13:26.796Z,0
2016-02-17T00:14:26.784Z,0
2016-02-17T00:15:26.787Z,0
2016-02-17T00:16:26.757Z,0
2016-02-17T00:17:26.760Z,0
2016-02-17T00:18:26.762Z,0
2016-02-17T00:19:26.765Z,0
2016-02-17T00:20:26.721Z,0
2016-02-17T00:21:26.739Z,0
2016-02-17T00:22:26.711Z,0
2016-02-17T00:23:26.729Z,0
2016-02-17T00:24:26.700Z,0
2016-02-17T00:25:26.719Z,0
2016-02-17T00:26:26.706Z,0
2016-02-17T00:27:26.709Z,0
2016-02-17T00:28:26.697Z,0
2016-02-17T00:29:26.699Z,0
2016-02-17T00:30:26.660Z,0
2016-02-17T00:31:26.677Z,0
2016-02-17T00:32:26.649Z,0
2016-02-17T00:33:26.652Z,0
2016-02-17T00:34:26.624Z,0
2016-02-17T00:35:26.626Z,0
2016-02-17T00:36:26.613Z,0
2016-02-17T00:37:26.632Z,0
2016-02-17T00:38:26.618Z,0
2016-02-17T00:39:26.605Z,0
2016-02-17T00:40:26.607Z,0
2016-02-17T00:41:26.580Z,0
2016-02-17T00:42:26.567Z,0
2016-02-17T00:43:26.570Z,0
2016-02-17T00:44:26.556Z,0
2016-02-17T00:45:26.559Z,0
2016-02-17T00:46:26.546Z,0
2016-02-17T00:47:26.565Z,0
2016-02-17T00:48:26.551Z,0
2016-02-17T00:49:26.539Z,0
2016-02-17T00:50:26.510Z,0
2016-02-17T00:51:26.544Z,0
2016-02-17T00:52:26.547Z,0
2016-02-17T00:53:26.517Z,0
2016-02-17T00:54:26.490Z,0
2016-02-17T00:55:26.461Z,0
2016-02-17T00:56:26.401Z,0
2016-02-17T00:57:26.482Z,0
2016-02-17T00:58:26.453Z,0
2016-02-17T00:59:26.456Z,0
2016-02-17T01:00:26.443Z,0
2016-02-17T01:01:26.430Z,0
2016-02-17T01:02:26.417Z,0
2016-02-17T01:03:26.420Z,0
2016-02-17T01:04:26.422Z,0
2016-02-17T01:05:26.410Z,0
2016-02-17T01:06:26.396Z,0
2016-02-17T01:07:26.400Z,0
2016-02-17T01:08:26.387Z,0
2016-02-17T01:09:26.405Z,0
2016-02-17T01:10:26.392Z,0
2016-02-17T01:11:26.410Z,0
2016-02-17T01:12:26.351Z,0
2016-02-17T01:13:26.321Z,0
2016-02-17T01:14:26.340Z,0
2016-02-17T01:15:26.343Z,0
2016-02-17T01:16:26.329Z,0
2016-02-17T01:17:26.317Z,0
2016-02-17T01:18:26.304Z,0
2016-02-17T01:19:26.307Z,0
2016-02-17T01:20:26.309Z,0
2016-02-17T01:21:26.297Z,0
2016-02-17T01:22:26.283Z,0
2016-02-17T01:23:26.287Z,0
2016-02-17T01:24:26.242Z,0
2016-02-17T01:25:26.261Z,0
2016-02-17T01:26:26.264Z,0
2016-02-17T01:27:26.250Z,0
2016-02-17T01:28:26.222Z,0
2016-02-17T01:29:26.225Z,0
2016-02-17T01:30:26.227Z,0
2016-02-17T01:31:26.089Z,0
2016-02-17T01:32:26.217Z,0
2016-02-17T01:33:26.204Z,0
2016-02-17T01:34:26.191Z,0
2016-02-17T01:35:26.177Z,0
2016-02-17T01:36:26.166Z,0
2016-02-17T01:37:26.168Z,0
2016-02-17T01:38:26.155Z,0
2016-02-17T01:39:26.141Z,0
2016-02-17T01:40:26.129Z,0
2016-02-17T01:41:26.116Z,0
2016-02-17T01:42:26.118Z,0
2016-02-17T01:43:26.121Z,0
2016-02-17T01:44:26.124Z,0
2016-02-17T01:45:26.127Z,0
2016-02-17T01:46:26.098Z,0
2016-02-17T01:47:26.085Z,0
2016-02-17T01:48:26.073Z,0
2016-02-17T01:49:25.903Z,0
2016-02-17T01:50:26.062Z,0
2016-02-17T01:51:26.048Z,0
2016-02-17T01:52:26.036Z,0
2016-02-17T01:53:26.039Z,0
2016-02-17T01:54:26.026Z,0
2016-02-17T01:55:26.028Z,0
2016-02-17T01:56:26.141Z,0
2016-02-17T01:57:26.003Z,0
2016-02-17T01:58:25.975Z,0
2016-02-17T01:59:25.977Z,0
2016-02-17T02:00:25.964Z,0
2016-02-17T02:01:25.967Z,0
2016-02-17T02:02:25.938Z,0
2016-02-17T02:03:25.956Z,0
2016-02-17T02:04:25.787Z,0
2016-02-17T02:05:25.961Z,0
2016-02-17T02:06:25.933Z,0
2016-02-17T02:07:25.935Z,0
2016-02-17T02:08:25.908Z,0
2016-02-17T02:09:25.894Z,0
2016-02-17T02:10:25.882Z,0
2016-02-17T02:11:25.869Z,0
2016-02-17T02:12:25.855Z,0
2016-02-17T02:13:25.858Z,0
2016-02-17T02:14:25.846Z,0
2016-02-17T02:15:25.848Z,0
2016-02-17T02:16:25.835Z,0
2016-02-17T02:17:25.823Z,0
2016-02-17T02:18:25.810Z,0
2016-02-17T02:19:25.828Z,0
2016-02-17T02:20:25.642Z,0
2016-02-17T02:21:25.801Z,0
2016-02-17T02:22:25.789Z,0
2016-02-17T02:23:25.776Z,0
2016-02-17T02:24:25.809Z,0
2016-02-17T02:25:25.766Z,0
2016-02-17T02:26:25.754Z,0
2016-02-17T02:27:25.741Z,0
2016-02-17T02:28:25.743Z,0
2016-02-17T02:29:25.731Z,0
2016-02-17T02:30:25.718Z,0
2016-02-17T02:31:25.736Z,0
2016-02-17T02:32:25.707Z,0
2016-02-17T02:33:25.694Z,0
2016-02-17T02:34:25.682Z,0
2016-02-17T02:35:25.684Z,0
2016-02-17T02:36:25.687Z,0
2016-02-17T02:37:25.658Z,0
2016-02-17T02:38:25.645Z,0
2016-02-17T02:39:25.664Z,0
2016-02-17T02:40:25.635Z,0
2016-02-17T02:41:25.622Z,0
2016-02-17T02:42:25.625Z,0
2016-02-17T02:43:25.628Z,0
2016-02-17T02:44:25.614Z,0
2016-02-17T02:45:25.617Z,0
2016-02-17T02:46:25.589Z,0
2016-02-17T02:47:25.592Z,0
2016-02-17T02:48:25.563Z,0
2016-02-17T02:49:25.566Z,0
2016-02-17T02:50:25.552Z,0
2016-02-17T02:51:25.571Z,0
2016-02-17T02:52:25.527Z,0
2016-02-17T02:53:25.545Z,0
2016-02-17T02:54:25.548Z,0
2016-02-17T02:55:25.504Z,0
2016-02-17T02:56:25.554Z,0
2016-02-17T02:57:25.510Z,0
2016-02-17T02:58:25.480Z,0
2016-02-17T02:59:25.499Z,0
2016-02-17T03:00:25.454Z,0
2016-02-17T03:01:25.488Z,0
2016-02-17T03:02:25.444Z,0
2016-02-17T03:03:25.463Z,0
2016-02-17T03:04:25.434Z,0
2016-02-17T03:05:25.453Z,0
2016-02-17T03:06:25.423Z,0
2016-02-17T03:07:25.411Z,0
2016-02-17T03:08:25.398Z,0
2016-02-17T03:09:25.384Z,0
2016-02-17T03:10:25.372Z,0
2016-02-17T03:11:25.390Z,0
2016-02-17T03:12:25.362Z,0
2016-02-17T03:13:25.380Z,0
2016-02-17T03:14:25.336Z,0
2016-02-17T03:15:25.369Z,0
2016-02-17T03:16:25.311Z,0
2016-02-17T03:17:25.328Z,0
2016-02-17T03:18:25.316Z,0
2016-02-17T03:19:25.318Z,0
2016-02-17T03:20:25.305Z,0
2016-02-17T03:21:25.308Z,0
2016-02-17T03:22:25.279Z,0
2016-02-17T03:23:25.266Z,0
2016-02-17T03:24:25.254Z,0
2016-02-17T03:25:25.257Z,0
2016-02-17T03:26:25.243Z,0
2016-02-17T03:27:25.215Z,0
2016-02-17T03:28:25.233Z,0
2016-02-17T03:29:25.204Z,0
2016-02-17T03:30:25.207Z,0
2016-02-17T03:31:25.193Z,0
2016-02-17T03:32:25.182Z,0
2016-02-17T03:33:25.199Z,0
2016-02-17T03:34:25.156Z,0
2016-02-17T03:35:25.159Z,0
2016-02-17T03:36:25.176Z,0
2016-02-17T03:37:25.164Z,0
2016-02-17T03:38:25.134Z,0
2016-02-17T03:39:25.122Z,0
2016-02-17T03:40:25.125Z,0
2016-02-17T03:41:25.096Z,0
2016-02-17T03:42:25.114Z,0
2016-02-17T03:43:25.086Z,0
2016-02-17T03:44:25.103Z,0
2016-02-17T03:45:25.091Z,0
2016-02-17T03:46:25.094Z,0
2016-02-17T03:47:25.066Z,0
2016-02-17T03:48:25.068Z,0
2016-02-17T03:49:25.039Z,0
2016-02-17T03:50:25.058Z,0
2016-02-17T03:51:24.857Z,0
2016-02-17T03:52:25.000Z,0
2016-02-17T03:53:25.003Z,0
2016-02-17T03:54:24.991Z,0
2016-02-17T03:55:24.993Z,0
2016-02-17T03:56:25.027Z,0
2016-02-17T03:57:24.968Z,0
2016-02-17T03:58:24.985Z,0
2016-02-17T03:59:24.941Z,0
2016-02-17T04:00:24.959Z,0
2016-02-17T04:01:24.932Z,0
2016-02-17T04:02:24.949Z,0
2016-02-17T04:03:24.937Z,0
2016-02-17T04:04:24.940Z,0
2016-02-17T04:05:24.895Z,0
2016-02-17T04:06:24.913Z,0
2016-02-17T04:07:24.884Z,0
2016-02-17T04:08:24.887Z,0
2016-02-17T04:09:24.859Z,0
2016-02-17T04:10:24.893Z,0
2016-02-17T04:11:24.848Z,0
2016-02-17T04:12:24.867Z,0
2016-02-17T04:13:24.822Z,0
2016-02-17T04:14:24.841Z,0
2016-02-17T04:15:24.828Z,0
2016-02-17T04:16:24.659Z,0
2016-02-17T04:17:24.802Z,0
2016-02-17T04:18:24.789Z,0
2016-02-17T04:19:24.777Z,0
2016-02-17T04:20:24.794Z,0
2016-02-17T04:21:24.766Z,0
2016-02-17T04:22:24.738Z,0
2016-02-17T04:23:24.756Z,0
2016-02-17T04:24:24.743Z,0
2016-02-17T04:25:24.730Z,0
2016-02-17T04:26:24.733Z,0
2016-02-17T04:27:24.719Z,0
2016-02-17T04:28:24.707Z,0
2016-02-17T04:29:24.709Z,0
2016-02-17T04:30:24.681Z,0
2016-02-17T04:31:24.684Z,0
2016-02-17T04:32:24.671Z,0
2016-02-17T04:33:24.690Z,0
2016-02-17T04:34:24.645Z,0
2016-02-17T04:35:24.663Z,0
2016-02-17T04:36:24.634Z,0
2016-02-17T04:37:24.684Z,0
2016-02-17T04:38:24.624Z,0
2016-02-17T04:39:24.643Z,0
2016-02-17T04:40:24.614Z,0
2016-02-17T04:41:24.632Z,0
2016-02-17T04:42:24.603Z,0
2016-02-17T04:43:24.575Z,0
2016-02-17T04:44:24.578Z,0
2016-02-17T04:45:24.564Z,0
2016-02-17T04:46:24.568Z,0
2016-02-17T04:47:24.570Z,0
2016-02-17T04:48:24.526Z,0
2016-02-17T04:49:24.529Z,0
2016-02-17T04:50:24.547Z,0
2016-02-17T04:51:24.519Z,0
2016-02-17T04:52:24.491Z,0
2016-02-17T04:53:24.493Z,0
2016-02-17T04:54:24.558Z,0
2016-02-17T04:55:24.514Z,0
2016-02-17T04:56:24.516Z,0
2016-02-17T04:57:24.457Z,0
2016-02-17T04:58:24.474Z,0
2016-02-17T04:59:24.477Z,0
2016-02-17T05:00:24.449Z,0
2016-02-17T05:01:24.452Z,0
2016-02-17T05:02:24.424Z,0
2016-02-17T05:03:24.426Z,0
2016-02-17T05:04:24.257Z,0
2016-02-17T05:05:24.462Z,0
2016-02-17T05:06:24.387Z,0
2016-02-17T05:07:24.406Z,0
2016-02-17T05:08:24.362Z,0
2016-02-17T05:09:24.365Z,0
2016-02-17T05:10:24.367Z,0
2016-02-17T05:11:24.338Z,0
2016-02-17T05:12:24.356Z,0
2016-02-17T05:13:24.328Z,0
2016-02-17T05:14:24.330Z,0
2016-02-17T05:15:24.318Z,0
2016-02-17T05:16:24.320Z,0
2016-02-17T05:17:24.308Z,0
2016-02-17T05:18:24.295Z,0
2016-02-17T05:19:24.297Z,0
2016-02-17T05:20:24.425Z,0
2016-02-17T05:21:31.739Z,0
2016-02-17T05:22:24.289Z,0
2016-02-17T05:23:24.245Z,0
2016-02-17T05:24:24.280Z,0
2016-02-17T05:25:24.236Z,0
2016-02-17T05:26:24.253Z,0
2016-02-17T05:27:24.647Z,0
2016-02-17T05:28:24.243Z,0
2016-02-17T05:29:24.230Z,0
2016-02-17T05:30:24.218Z,0
2016-02-17T05:31:24.174Z,0
2016-02-17T05:32:24.207Z,0
2016-02-17T05:33:24.179Z,0
2016-02-17T05:34:24.196Z,0
2016-02-17T05:35:24.152Z,0
2016-02-17T05:36:24.155Z,0
2016-02-17T05:37:23.971Z,0
2016-02-17T05:38:24.146Z,0
2016-02-17T05:39:24.117Z,0
2016-02-17T05:40:24.135Z,0
2016-02-17T05:41:24.122Z,0
2016-02-17T05:42:24.125Z,0
2016-02-17T05:43:24.111Z,0
2016-02-17T05:44:24.084Z,0
2016-02-17T05:45:24.086Z,0
2016-02-17T05:46:24.057Z,0
2016-02-17T05:47:24.092Z,0
2016-02-17T05:48:24.047Z,0
2016-02-17T05:49:24.050Z,0
2016-02-17T05:50:24.021Z,0
2016-02-17T05:51:24.039Z,0
2016-02-17T05:52:24.011Z,0
2016-02-17T05:53:24.030Z,0
2016-02-17T05:54:24.001Z,0
2016-02-17T05:55:24.035Z,0
2016-02-17T05:56:24.053Z,0
2016-02-17T05:57:23.993Z,0
2016-02-17T05:58:23.964Z,0
2016-02-17T05:59:23.951Z,0
2016-02-17T06:00:23.955Z,0
2016-02-17T06:01:23.973Z,0
2016-02-17T06:02:23.944Z,0
2016-02-17T06:03:23.962Z,0
2016-02-17T06:04:23.918Z,0
2016-02-17T06:05:23.937Z,0
2016-02-17T06:06:23.907Z,0
2016-02-17T06:07:23.927Z,0
2016-02-17T06:08:23.882Z,0
2016-02-17T06:09:23.916Z,5
2016-02-17T06:10:24.075Z,5
2016-02-17T06:11:23.874Z,5
2016-02-17T06:12:23.862Z,5
2016-02-17T06:13:23.848Z,5
2016-02-17T06:14:23.837Z,5
2016-02-17T06:15:23.823Z,5
2016-02-17T06:16:23.856Z,5
2016-02-17T06:17:23.828Z,10
2016-02-17T06:18:23.800Z,10
2016-02-17T06:19:23.787Z,10
2016-02-17T06:20:23.790Z,10
2016-02-17T06:21:23.808Z,10
2016-02-17T06:22:23.763Z,15
2016-02-17T06:23:23.782Z,15
2016-02-17T06:24:23.739Z,15
2016-02-17T06:25:23.756Z,15
2016-02-17T06:26:23.744Z,15
2016-02-17T06:27:23.746Z,20
2016-02-17T06:28:23.733Z,20
2016-02-17T06:29:23.735Z,20
2016-02-17T06:30:23.691Z,20
2016-02-17T06:31:23.710Z,20
2016-02-17T06:32:23.713Z,25
2016-02-17T06:33:23.684Z,25
2016-02-17T06:34:23.671Z,25
2016-02-17T06:35:23.658Z,25
2016-02-17T06:36:23.691Z,25
2016-02-17T06:37:23.648Z,30
2016-02-17T06:38:23.634Z,30
2016-02-17T06:39:23.654Z,30
2016-02-17T06:40:23.610Z,30
2016-02-17T06:41:23.643Z,30
2016-02-17T06:42:23.599Z,35
2016-02-17T06:43:23.617Z,35
2016-02-17T06:44:23.573Z,35
2016-02-17T06:45:23.590Z,35
2016-02-17T06:46:23.562Z,35
2016-02-17T06:47:23.597Z,40
2016-02-17T06:48:23.537Z,40
2016-02-17T06:49:23.540Z,40
2016-02-17T06:50:23.526Z,40
2016-02-17T06:51:23.529Z,40
2016-02-17T06:52:23.548Z,40
2016-02-17T06:53:23.519Z,45
2016-02-17T06:54:23.505Z,45
2016-02-17T06:55:23.493Z,45
2016-02-17T06:56:23.528Z,45
2016-02-17T06:57:23.530Z,45
2016-02-17T06:58:23.485Z,50
2016-02-17T06:59:23.488Z,50
2016-02-17T07:00:23.475Z,50
2016-02-17T07:01:23.446Z,50
2016-02-17T07:02:23.434Z,50
2016-02-17T07:03:23.484Z,50
2016-02-17T07:04:23.438Z,55
2016-02-17T07:05:23.410Z,55
2016-02-17T07:06:23.538Z,55
2016-02-17T07:07:23.432Z,55
2016-02-17T07:08:23.403Z,55
2016-02-17T07:09:23.391Z,55
2016-02-17T07:10:23.487Z,60
2016-02-17T07:11:23.380Z,60
2016-02-17T07:12:23.368Z,60
2016-02-17T07:13:23.370Z,60
2016-02-17T07:14:23.357Z,60
2016-02-17T07:15:23.343Z,60
2016-02-17T07:16:23.363Z,60
2016-02-17T07:17:23.334Z,65
2016-02-17T07:18:23.133Z,65
2016-02-17T07:19:23.339Z,65
2016-02-17T07:20:23.279Z,65
2016-02-17T07:21:23.297Z,65
2016-02-17T07:22:23.301Z,65
2016-02-17T07:23:23.271Z,70
2016-02-17T07:24:23.275Z,70
2016-02-17T07:25:23.245Z,70
2016-02-17T07:26:23.264Z,70
2016-02-17T07:27:23.236Z,75
2016-02-17T07:28:23.222Z,75
2016-02-17T07:29:23.209Z,75
2016-02-17T07:30:23.259Z,80
2016-02-17T07:31:23.230Z,80
2016-02-17T07:32:23.203Z,80
2016-02-17T07:33:23.189Z,85
2016-02-17T07:34:23.192Z,85
2016-02-17T07:35:23.194Z,85
2016-02-17T07:36:23.150Z,90
2016-02-17T07:37:23.138Z,95
2016-02-17T07:38:23.171Z,95
2016-02-17T07:39:23.127Z,100
2016-02-17T07:40:23.130Z,100
2016-02-17T07:41:23.149Z,100
2016-02-17T07:42:23.104Z,100
2016-02-17T07:43:23.122Z,100
2016-02-17T07:44:23.125Z,100
2016-02-17T07:45:23.096Z,100
2016-02-17T07:46:23.098Z,100
2016-02-17T07:47:23.118Z,105
2016-02-17T07:48:23.042Z,105
2016-02-17T07:49:23.073Z,105
2016-02-17T07:50:23.027Z,105
2016-02-17T07:51:22.998Z,105
2016-02-17T07:52:22.984Z,105
2016-02-17T07:53:22.955Z,110
2016-02-17T07:54:22.975Z,110
2016-02-17T07:55:22.924Z,115
2016-02-17T07:56:23.000Z,115
2016-02-17T07:57:22.888Z,115
2016-02-17T07:58:22.868Z,115
2016-02-17T07:59:22.897Z,115
2016-02-17T08:00:22.866Z,110
2016-02-17T08:01:22.851Z,105
2016-02-17T08:02:22.885Z,105
2016-02-17T08:03:22.822Z,105
2016-02-17T08:04:22.824Z,110
2016-02-17T08:05:22.841Z,115
2016-02-17T08:06:22.827Z,120
2016-02-17T08:07:22.798Z,125
2016-02-17T08:08:22.800Z,125
2016-02-17T08:09:22.849Z,130
2016-02-17T08:10:22.773Z,130
2016-02-17T08:11:22.775Z,125
2016-02-17T08:12:22.793Z,120
2016-02-17T08:13:22.748Z,115
2016-02-17T08:14:22.750Z,105
2016-02-17T08:15:22.769Z,90
2016-02-17T08:16:21.974Z,75
2016-02-17T08:17:22.728Z,75
2016-02-17T08:18:22.730Z,75
2016-02-17T08:19:22.717Z,75
2016-02-17T08:20:22.719Z,80
2016-02-17T08:21:22.738Z,85
2016-02-17T08:22:22.725Z,90
2016-02-17T08:23:22.681Z,95
2016-02-17T08:24:22.685Z,100
2016-02-17T08:25:22.718Z,110
2016-02-17T08:26:22.674Z,115
2016-02-17T08:27:22.677Z,120
2016-02-17T08:28:22.664Z,120
2016-02-17T08:29:22.666Z,120
2016-02-17T08:30:22.638Z,125
2016-02-17T08:31:22.688Z,130
2016-02-17T08:32:22.956Z,130
2016-02-17T08:33:22.614Z,130
2016-02-17T08:34:22.618Z,130
2016-02-17T08:35:22.620Z,130
2016-02-17T08:36:22.607Z,125
2016-02-17T08:37:22.609Z,110
2016-02-17T08:38:22.612Z,115
2016-02-17T08:39:22.615Z,130
2016-02-17T08:40:22.587Z,150
2016-02-17T08:41:22.573Z,160
2016-02-17T08:42:22.592Z,165
2016-02-17T08:43:22.564Z,165
2016-02-17T08:44:22.567Z,155
2016-02-17T08:45:22.570Z,150
2016-02-17T08:46:22.572Z,145
2016-02-17T08:47:22.559Z,140
2016-02-17T08:48:22.531Z,115
2016-02-17T08:49:22.533Z,95
2016-02-17T08:50:22.520Z,110
2016-02-17T08:51:22.507Z,145
2016-02-17T08:52:22.525Z,175
2016-02-17T08:53:22.512Z,195
2016-02-17T08:54:22.515Z,200
2016-02-17T08:55:22.518Z,200
2016-02-17T08:56:22.536Z,195
2016-02-17T08:57:22.477Z,190
2016-02-17T08:58:22.479Z,185
2016-02-17T08:59:22.466Z,175
2016-02-17T09:00:22.468Z,175
2016-02-17T09:01:22.471Z,175
2016-02-17T09:02:22.474Z,170
2016-02-17T09:03:22.446Z,170
2016-02-17T09:04:22.449Z,175
2016-02-17T09:05:22.451Z,175
2016-02-17T09:06:22.423Z,190
2016-02-17T09:07:22.456Z,205
2016-02-17T09:08:22.412Z,220
2016-02-17T09:09:22.415Z,240
2016-02-17T09:10:22.464Z,245
2016-02-17T09:11:22.404Z,240
2016-02-17T09:12:22.406Z,230
2016-02-17T09:13:22.395Z,215
2016-02-17T09:14:22.413Z,205
2016-02-17T09:15:22.400Z,200
2016-02-17T09:16:22.387Z,195
2016-02-17T09:17:22.405Z,185
2016-02-17T09:18:22.361Z,175
2016-02-17T09:19:22.378Z,170
2016-02-17T09:20:22.350Z,165
2016-02-17T09:21:22.353Z,160
2016-02-17T09:22:22.386Z,160
2016-02-17T09:23:22.359Z,160
2016-02-17T09:24:22.330Z,160
2016-02-17T09:25:22.333Z,160
2016-02-17T09:26:22.366Z,165
2016-02-17T09:27:22.322Z,175
2016-02-17T09:28:22.309Z,185
2016-02-17T09:29:22.188Z,195
2016-02-17T09:30:22.315Z,205
2016-02-17T09:31:22.302Z,210
2016-02-17T09:32:22.320Z,210
2016-02-17T09:33:22.307Z,210
2016-02-17T09:34:22.310Z,205
2016-02-17T09:35:22.265Z,200
2016-02-17T09:36:22.269Z,195
2016-02-17T09:37:22.288Z,190
2016-02-17T09:38:22.274Z,185
2016-02-17T09:39:22.277Z,180
2016-02-17T09:40:22.310Z,185
2016-02-17T09:41:22.267Z,185
2016-02-17T09:42:22.270Z,170
2016-02-17T09:43:22.272Z,155
2016-02-17T09:44:22.259Z,150
2016-02-17T09:45:22.245Z,150
2016-02-17T09:46:22.248Z,155
2016-02-17T09:47:22.251Z,160
2016-02-17T09:48:22.239Z,160
2016-02-17T09:49:22.225Z,165
2016-02-17T09:50:22.228Z,175
2016-02-17T09:51:22.215Z,180
2016-02-17T09:52:22.203Z,185
2016-02-17T09:53:22.174Z,190
2016-02-17T09:54:22.192Z,200
2016-02-17T09:55:22.194Z,205
2016-02-17T09:56:22.291Z,200
2016-02-17T09:57:22.169Z,185
2016-02-17T09:58:22.203Z,175
2016-02-17T09:59:22.175Z,165
2016-02-17T10:00:22.177Z,165
2016-02-17T10:01:22.196Z,165
2016-02-17T10:02:22.183Z,165
2016-02-17T10:03:22.185Z,170
2016-02-17T10:04:22.140Z,175
2016-02-17T10:05:22.143Z,185
2016-02-17T10:06:22.146Z,200
2016-02-17T10:07:22.133Z,215
2016-02-17T10:08:22.135Z,230
2016-02-17T10:09:22.154Z,245
2016-02-17T10:10:22.110Z,260
2016-02-17T10:11:22.112Z,280
2016-02-17T10:12:22.115Z,290
2016-02-17T10:13:22.103Z,300
2016-02-17T10:14:22.167Z,305
2016-02-17T10:15:22.109Z,310
2016-02-17T10:16:22.095Z,315
2016-02-17T10:17:22.114Z,320
2016-02-17T10:18:22.100Z,330
2016-02-17T10:19:22.134Z,325
2016-02-17T10:20:22.090Z,315
2016-02-17T10:21:22.077Z,305
2016-02-17T10:22:22.064Z,305
2016-02-17T10:23:22.067Z,305
2016-02-17T10:24:22.085Z,305
2016-02-17T10:25:22.072Z,310
2016-02-17T10:26:21.341Z,315
2016-02-17T10:27:22.047Z,320
2016-02-17T10:28:22.049Z,320
2016-02-17T10:29:22.036Z,335
2016-02-17T10:30:22.008Z,345
2016-02-17T10:31:22.042Z,370
2016-02-17T10:32:22.044Z,390
2016-02-17T10:33:21.860Z,400
2016-02-17T10:34:22.222Z,410
2016-02-17T10:35:22.035Z,420
2016-02-17T10:36:22.037Z,430
2016-02-17T10:37:22.008Z,425
2016-02-17T10:38:21.996Z,420
2016-02-17T10:39:22.014Z,420
2016-02-17T10:40:22.002Z,410
2016-02-17T10:41:22.004Z,405
2016-02-17T10:42:21.975Z,385
2016-02-17T10:43:22.041Z,370
2016-02-17T10:44:21.906Z,365
2016-02-17T10:45:22.131Z,355
2016-02-17T10:46:21.946Z,345
2016-02-17T10:47:22.438Z,355
2016-02-17T10:48:22.019Z,360
2016-02-17T10:49:21.975Z,365
2016-02-17T10:50:21.977Z,365
2016-02-17T10:51:21.965Z,365
2016-02-17T10:52:21.952Z,375
2016-02-17T10:53:21.939Z,370
2016-02-17T10:54:21.926Z,390
2016-02-17T10:55:21.976Z,425
2016-02-17T10:56:21.947Z,485
2016-02-17T10:57:21.944Z,555
2016-02-17T10:58:21.947Z,615
2016-02-17T10:59:21.918Z,635
2016-02-17T11:00:21.921Z,625
2016-02-17T11:01:21.940Z,610
2016-02-17T11:02:21.910Z,600
2016-02-17T11:03:21.945Z,565
2016-02-17T11:04:21.901Z,545
2016-02-17T11:05:21.904Z,515
2016-02-17T11:06:21.890Z,465
2016-02-17T11:07:21.924Z,435
2016-02-17T11:08:21.880Z,405
2016-02-17T11:09:21.945Z,385
2016-02-17T11:10:21.902Z,370
2016-02-17T11:11:21.873Z,355
2016-02-17T11:12:21.876Z,345
2016-02-17T11:13:21.878Z,335
2016-02-17T11:14:21.928Z,300
2016-02-17T11:15:21.962Z,300
2016-02-17T11:17:21.859Z,280
2016-02-17T11:18:22.001Z,270
2016-02-17T11:19:22.114Z,280
2016-02-17T11:20:21.850Z,280
2016-02-17T11:21:21.869Z,270
2016-02-17T11:22:21.856Z,245
2016-02-17T11:23:21.828Z,245
2016-02-17T11:24:21.845Z,245
2016-02-17T11:25:21.864Z,225
2016-02-17T11:26:21.851Z,230
2016-02-17T11:27:21.838Z,215
2016-02-17T11:28:21.841Z,200
2016-02-17T11:29:21.828Z,175
2016-02-17T11:30:21.815Z,165
2016-02-17T11:31:21.833Z,160
2016-02-17T11:32:21.789Z,160
2016-02-17T11:33:21.636Z,160
2016-02-17T11:34:22.795Z,160
2016-02-17T11:35:21.797Z,160
2016-02-17T11:36:21.785Z,160
2016-02-17T11:37:21.833Z,140
2016-02-17T11:38:21.790Z,140
2016-02-17T11:39:21.760Z,135
2016-02-17T11:40:21.779Z,125
2016-02-17T11:41:21.798Z,115
2016-02-17T11:42:21.785Z,105
2016-02-17T11:43:21.757Z,90
2016-02-17T11:44:21.806Z,85
2016-02-17T11:45:21.762Z,115
2016-02-17T11:46:21.796Z,115
2016-02-17T11:47:21.768Z,115
2016-02-17T11:48:21.755Z,110
2016-02-17T11:49:21.741Z,120
2016-02-17T11:50:21.728Z,120
2016-02-17T11:51:22.107Z,120
2016-02-17T11:52:21.718Z,130
2016-02-17T11:53:21.690Z,135
2016-02-17T11:54:21.974Z,135
2016-02-17T11:55:21.695Z,155
2016-02-17T11:56:21.745Z,150
2016-02-17T11:57:21.717Z,160
2016-02-17T11:58:21.922Z,165
2016-02-17T11:59:21.707Z,155
2016-02-17T12:00:21.693Z,140
2016-02-17T12:01:21.695Z,155
2016-02-17T12:02:21.668Z,170
2016-02-17T12:03:21.670Z,160
2016-02-17T12:04:21.673Z,150
2016-02-17T12:05:21.508Z,160
2016-02-17T12:06:21.667Z,150
2016-02-17T12:07:21.622Z,180
2016-02-17T12:08:21.641Z,190
2016-02-17T12:09:21.644Z,180
2016-02-17T12:10:21.616Z,190
2016-02-17T12:11:21.649Z,195
2016-02-17T12:12:21.621Z,200
2016-02-17T12:13:21.655Z,205
2016-02-17T12:14:21.627Z,215
2016-02-17T12:15:21.613Z,235
2016-02-17T12:16:21.647Z,225
2016-02-17T12:17:21.587Z,220
2016-02-17T12:18:21.622Z,180
2016-02-17T12:19:21.609Z,170
2016-02-17T12:20:21.595Z,170
2016-02-17T12:21:21.615Z,175
2016-02-17T12:22:21.601Z,170
2016-02-17T12:23:21.620Z,150
2016-02-17T12:24:21.559Z,140
2016-02-17T12:25:21.531Z,130
2016-02-17T12:26:21.565Z,130
2016-02-17T12:27:21.552Z,115
2016-02-17T12:28:21.539Z,115
2016-02-17T12:29:21.541Z,130
2016-02-17T12:30:21.576Z,140
2016-02-17T12:31:21.516Z,145
2016-02-17T12:32:22.362Z,145
2016-02-17T12:33:21.584Z,160
2016-02-17T12:34:21.555Z,170
2016-02-17T12:35:22.245Z,160
2016-02-17T12:36:21.498Z,140
2016-02-17T12:37:21.516Z,130
2016-02-17T12:38:21.050Z,135
2016-02-17T12:39:21.756Z,130
2016-02-17T12:40:21.837Z,110
2016-02-17T12:41:21.793Z,95
2016-02-17T12:42:21.733Z,85
2016-02-17T12:43:21.861Z,90
2016-02-17T12:44:21.722Z,90
2016-02-17T12:45:21.757Z,90
2016-02-17T12:46:21.775Z,90
2016-02-17T12:47:21.824Z,100
2016-02-17T12:48:21.780Z,115
2016-02-17T12:49:21.893Z,135
2016-02-17T12:50:21.754Z,145
2016-02-17T12:51:21.866Z,160
2016-02-17T12:52:21.776Z,170
2016-02-17T12:53:21.668Z,180
2016-02-17T12:54:21.734Z,185
2016-02-17T12:55:21.815Z,185
2016-02-17T12:56:21.895Z,165
2016-02-17T12:57:21.961Z,155
2016-02-17T12:58:21.760Z,145
2016-02-17T12:59:21.841Z,130
2016-02-17T13:00:21.751Z,125
2016-02-17T13:01:21.628Z,125
2016-02-17T13:02:21.520Z,115
2016-02-17T13:03:21.774Z,110
2016-02-17T13:04:21.745Z,110
2016-02-17T13:05:21.764Z,105
2016-02-17T13:06:21.672Z,110
2016-02-17T13:07:21.706Z,110
2016-02-17T13:08:21.819Z,115
2016-02-17T13:09:21.697Z,125
2016-02-17T13:10:21.605Z,130
2016-02-17T13:11:20.935Z,120
2016-02-17T13:12:22.719Z,120
2016-02-17T13:13:20.863Z,125
2016-02-17T13:14:22.069Z,120
2016-02-17T13:15:21.680Z,120
2016-02-17T13:16:21.355Z,115
2016-02-17T13:17:21.624Z,105
2016-02-17T13:18:21.752Z,105
2016-02-17T13:19:21.661Z,100
2016-02-17T13:20:21.632Z,100
2016-02-17T13:21:21.587Z,95
2016-02-17T13:22:21.638Z,95
2016-02-17T13:23:21.609Z,85
2016-02-17T13:24:21.470Z,85
2016-02-17T13:25:21.630Z,85
2016-02-17T13:26:21.539Z,95
2016-02-17T13:27:21.542Z,105
2016-02-17T13:28:21.591Z,115
2016-02-17T13:29:21.484Z,115
2016-02-17T13:30:21.518Z,115
2016-02-17T13:31:21.506Z,115
2016-02-17T13:32:21.555Z,110
2016-02-17T13:33:21.464Z,100
2016-02-17T13:34:21.653Z,100
2016-02-17T13:35:21.532Z,100
2016-02-17T13:36:21.456Z,105
2016-02-17T13:37:20.662Z,105
2016-02-17T13:38:21.492Z,100
2016-02-17T13:39:21.542Z,100
2016-02-17T13:40:21.420Z,95
2016-02-17T13:41:21.454Z,85
2016-02-17T13:42:21.175Z,85
2016-02-17T13:43:21.130Z,80
2016-02-17T13:44:21.166Z,85
2016-02-17T13:45:21.136Z,75
2016-02-17T13:46:21.124Z,80
2016-02-17T13:47:21.127Z,80
2016-02-17T13:48:21.144Z,80
2016-02-17T13:49:21.179Z,85
2016-02-17T13:50:21.119Z,80
2016-02-17T13:51:21.152Z,70
2016-02-17T13:52:21.124Z,65
2016-02-17T13:53:21.096Z,70
2016-02-17T13:54:21.098Z,80
2016-02-17T13:55:21.118Z,80
2016-02-17T13:56:21.276Z,75
2016-02-17T13:57:21.154Z,80
2016-02-17T13:58:21.156Z,80
2016-02-17T13:59:21.159Z,70
2016-02-17T14:00:21.161Z,70
2016-02-17T14:01:21.320Z,80
2016-02-17T14:02:21.120Z,80
2016-02-17T14:03:21.107Z,80
2016-02-17T14:04:21.047Z,80
2016-02-17T14:05:21.065Z,75
2016-02-17T14:06:21.115Z,70
2016-02-17T14:07:21.039Z,70
2016-02-17T14:08:21.042Z,75
2016-02-17T14:09:20.873Z,80
2016-02-17T14:10:21.078Z,75
2016-02-17T14:11:21.128Z,75
2016-02-17T14:12:20.991Z,75
2016-02-17T14:13:21.040Z,70
2016-02-17T14:14:21.075Z,75
2016-02-17T14:15:21.061Z,85
2016-02-17T14:16:21.016Z,85
2016-02-17T14:17:20.972Z,85
2016-02-17T14:18:21.054Z,85